sensor_id;sensor_type;location;lat;lon;timestamp;P1;durP1;ratioP1;P2;durP2;ratioP2
3149;SDS011;32503;47.748;8.960;2024-02-26T00:00:22;4.87;;;4.17;;
3149;SDS011;32503;47.748;8.960;2024-02-26T00:02:49;4.50;;;4.20;;
3149;SDS011;32503;47.748;8.960;2024-02-26T00:05:16;6.63;;;5.67;;
3149;SDS011;32503;47.748;8.960;2024-02-26T00:07:43;7.80;;;7.03;;
3149;SDS011;32503;47.748;8.960;2024-02-26T00:10:10;9.33;;;5.90;;
3149;SDS011;32503;47.748;8.960;2024-02-26T00:12:37;8.90;;;5.30;;
3149;SDS011;32503;47.748;8.960;2024-02-26T00:15:06;4.67;;;4.37;;
3149;SDS011;32503;47.748;8.960;2024-02-26T00:17:35;4.30;;;4.00;;
3149;SDS011;32503;47.748;8.960;2024-02-26T00:20:02;3.83;;;3.53;;
3149;SDS011;32503;47.748;8.960;2024-02-26T00:22:33;4.23;;;3.83;;
3149;SDS011;32503;47.748;8.960;2024-02-26T00:25:00;3.97;;;3.60;;
3149;SDS011;32503;47.748;8.960;2024-02-26T00:27:27;4.33;;;4.10;;
3149;SDS011;32503;47.748;8.960;2024-02-26T00:29:54;5.10;;;4.33;;
3149;SDS011;32503;47.748;8.960;2024-02-26T00:32:23;6.10;;;4.00;;
3149;SDS011;32503;47.748;8.960;2024-02-26T00:34:50;3.40;;;3.10;;
3149;SDS011;32503;47.748;8.960;2024-02-26T00:37:17;3.20;;;3.00;;
3149;SDS011;32503;47.748;8.960;2024-02-26T00:39:45;3.80;;;3.23;;
3149;SDS011;32503;47.748;8.960;2024-02-26T00:42:12;4.00;;;3.60;;
3149;SDS011;32503;47.748;8.960;2024-02-26T00:44:39;3.57;;;3.37;;
3149;SDS011;32503;47.748;8.960;2024-02-26T00:47:06;3.20;;;2.90;;
3149;SDS011;32503;47.748;8.960;2024-02-26T00:49:35;3.40;;;3.13;;
3149;SDS011;32503;47.748;8.960;2024-02-26T00:52:02;4.40;;;4.10;;
3149;SDS011;32503;47.748;8.960;2024-02-26T00:54:29;3.60;;;3.40;;
3149;SDS011;32503;47.748;8.960;2024-02-26T00:56:56;3.20;;;2.90;;
3149;SDS011;32503;47.748;8.960;2024-02-26T00:59:23;3.87;;;3.50;;
3149;SDS011;32503;47.748;8.960;2024-02-26T01:01:50;4.43;;;3.10;;
3149;SDS011;32503;47.748;8.960;2024-02-26T01:04:17;3.77;;;3.40;;
3149;SDS011;32503;47.748;8.960;2024-02-26T01:06:46;4.00;;;3.70;;
3149;SDS011;32503;47.748;8.960;2024-02-26T01:09:13;4.30;;;3.90;;
3149;SDS011;32503;47.748;8.960;2024-02-26T01:11:40;3.40;;;3.20;;
3149;SDS011;32503;47.748;8.960;2024-02-26T01:14:07;2.83;;;2.73;;
3149;SDS011;32503;47.748;8.960;2024-02-26T01:16:34;3.57;;;3.03;;
3149;SDS011;32503;47.748;8.960;2024-02-26T01:19:01;4.13;;;3.83;;
3149;SDS011;32503;47.748;8.960;2024-02-26T01:21:28;4.07;;;3.87;;
3149;SDS011;32503;47.748;8.960;2024-02-26T01:23:57;3.10;;;2.90;;
3149;SDS011;32503;47.748;8.960;2024-02-26T01:26:24;3.77;;;3.37;;
3149;SDS011;32503;47.748;8.960;2024-02-26T01:28:51;3.50;;;3.30;;
3149;SDS011;32503;47.748;8.960;2024-02-26T01:31:20;5.63;;;4.17;;
3149;SDS011;32503;47.748;8.960;2024-02-26T01:33:47;3.47;;;3.17;;
3149;SDS011;32503;47.748;8.960;2024-02-26T01:36:14;3.40;;;3.20;;
3149;SDS011;32503;47.748;8.960;2024-02-26T01:38:41;2.97;;;2.77;;
3149;SDS011;32503;47.748;8.960;2024-02-26T01:41:09;5.97;;;3.57;;
3149;SDS011;32503;47.748;8.960;2024-02-26T01:43:36;3.20;;;3.00;;
3149;SDS011;32503;47.748;8.960;2024-02-26T01:46:03;2.80;;;2.60;;
3149;SDS011;32503;47.748;8.960;2024-02-26T01:48:31;3.40;;;2.70;;
3149;SDS011;32503;47.748;8.960;2024-02-26T01:50:58;3.10;;;2.90;;
3149;SDS011;32503;47.748;8.960;2024-02-26T01:53:25;3.80;;;2.30;;
3149;SDS011;32503;47.748;8.960;2024-02-26T01:55:52;3.20;;;2.90;;
3149;SDS011;32503;47.748;8.960;2024-02-26T01:58:20;3.37;;;2.63;;
3149;SDS011;32503;47.748;8.960;2024-02-26T02:00:48;2.20;;;2.10;;
3149;SDS011;32503;47.748;8.960;2024-02-26T02:03:15;3.03;;;2.83;;
3149;SDS011;32503;47.748;8.960;2024-02-26T02:05:42;2.63;;;2.43;;
3149;SDS011;32503;47.748;8.960;2024-02-26T02:08:10;2.97;;;2.70;;
3149;SDS011;32503;47.748;8.960;2024-02-26T02:10:37;2.70;;;2.50;;
3149;SDS011;32503;47.748;8.960;2024-02-26T02:13:05;2.87;;;2.67;;
3149;SDS011;32503;47.748;8.960;2024-02-26T02:15:34;2.50;;;2.40;;
3149;SDS011;32503;47.748;8.960;2024-02-26T02:18:01;2.23;;;2.13;;
3149;SDS011;32503;47.748;8.960;2024-02-26T02:20:32;2.23;;;2.13;;
3149;SDS011;32503;47.748;8.960;2024-02-26T02:23:00;4.60;;;2.00;;
3149;SDS011;32503;47.748;8.960;2024-02-26T02:25:28;2.63;;;2.37;;
3149;SDS011;32503;47.748;8.960;2024-02-26T02:27:55;2.50;;;2.30;;
3149;SDS011;32503;47.748;8.960;2024-02-26T02:30:24;2.90;;;2.47;;
3149;SDS011;32503;47.748;8.960;2024-02-26T02:32:54;3.10;;;2.80;;
3149;SDS011;32503;47.748;8.960;2024-02-26T02:35:23;2.90;;;2.70;;
3149;SDS011;32503;47.748;8.960;2024-02-26T02:37:51;3.43;;;3.23;;
3149;SDS011;32503;47.748;8.960;2024-02-26T02:40:18;6.57;;;5.90;;
3149;SDS011;32503;47.748;8.960;2024-02-26T02:42:45;24.00;;;8.00;;
3149;SDS011;32503;47.748;8.960;2024-02-26T02:45:12;9.30;;;7.83;;
3149;SDS011;32503;47.748;8.960;2024-02-26T02:47:40;11.43;;;7.17;;
3149;SDS011;32503;47.748;8.960;2024-02-26T02:50:07;9.47;;;6.80;;
3149;SDS011;32503;47.748;8.960;2024-02-26T02:52:35;6.37;;;5.10;;
3149;SDS011;32503;47.748;8.960;2024-02-26T02:55:03;4.30;;;3.23;;
3149;SDS011;32503;47.748;8.960;2024-02-26T02:57:31;2.97;;;2.77;;
3149;SDS011;32503;47.748;8.960;2024-02-26T02:59:59;2.63;;;2.53;;
3149;SDS011;32503;47.748;8.960;2024-02-26T03:02:28;2.50;;;2.40;;
3149;SDS011;32503;47.748;8.960;2024-02-26T03:04:55;11.10;;;2.47;;
3149;SDS011;32503;47.748;8.960;2024-02-26T03:07:22;3.53;;;3.23;;
3149;SDS011;32503;47.748;8.960;2024-02-26T03:09:49;2.40;;;2.30;;
3149;SDS011;32503;47.748;8.960;2024-02-26T03:12:18;2.63;;;2.43;;
3149;SDS011;32503;47.748;8.960;2024-02-26T03:14:45;3.10;;;2.90;;
3149;SDS011;32503;47.748;8.960;2024-02-26T03:17:13;2.40;;;2.30;;
3149;SDS011;32503;47.748;8.960;2024-02-26T03:19:40;2.83;;;2.50;;
3149;SDS011;32503;47.748;8.960;2024-02-26T03:22:07;5.70;;;2.60;;
3149;SDS011;32503;47.748;8.960;2024-02-26T03:24:34;2.63;;;2.43;;
3149;SDS011;32503;47.748;8.960;2024-02-26T03:27:01;3.20;;;2.90;;
3149;SDS011;32503;47.748;8.960;2024-02-26T03:29:31;3.33;;;3.13;;
3149;SDS011;32503;47.748;8.960;2024-02-26T03:31:58;3.00;;;2.80;;
3149;SDS011;32503;47.748;8.960;2024-02-26T03:34:25;3.07;;;2.83;;
3149;SDS011;32503;47.748;8.960;2024-02-26T03:36:52;3.17;;;2.83;;
3149;SDS011;32503;47.748;8.960;2024-02-26T03:39:19;2.63;;;2.53;;
3149;SDS011;32503;47.748;8.960;2024-02-26T03:41:47;2.13;;;2.03;;
3149;SDS011;32503;47.748;8.960;2024-02-26T03:44:14;2.33;;;2.23;;
3149;SDS011;32503;47.748;8.960;2024-02-26T03:46:43;2.87;;;2.70;;
3149;SDS011;32503;47.748;8.960;2024-02-26T03:49:10;3.40;;;3.20;;
3149;SDS011;32503;47.748;8.960;2024-02-26T03:51:38;3.10;;;2.90;;
3149;SDS011;32503;47.748;8.960;2024-02-26T03:54:05;2.90;;;2.70;;
3149;SDS011;32503;47.748;8.960;2024-02-26T03:56:32;2.47;;;2.37;;
3149;SDS011;32503;47.748;8.960;2024-02-26T03:58:59;2.70;;;2.53;;
3149;SDS011;32503;47.748;8.960;2024-02-26T04:01:27;2.83;;;2.63;;
3149;SDS011;32503;47.748;8.960;2024-02-26T04:03:56;2.57;;;2.47;;
3149;SDS011;32503;47.748;8.960;2024-02-26T04:06:23;3.53;;;3.23;;
3149;SDS011;32503;47.748;8.960;2024-02-26T04:08:50;4.13;;;3.80;;
3149;SDS011;32503;47.748;8.960;2024-02-26T04:11:17;4.10;;;3.77;;
3149;SDS011;32503;47.748;8.960;2024-02-26T04:13:45;3.33;;;3.13;;
3149;SDS011;32503;47.748;8.960;2024-02-26T04:16:14;2.80;;;2.60;;
3149;SDS011;32503;47.748;8.960;2024-02-26T04:18:41;3.50;;;3.30;;
3149;SDS011;32503;47.748;8.960;2024-02-26T04:21:10;2.30;;;1.97;;
3149;SDS011;32503;47.748;8.960;2024-02-26T04:23:37;1.97;;;1.87;;
3149;SDS011;32503;47.748;8.960;2024-02-26T04:26:04;3.03;;;2.53;;
3149;SDS011;32503;47.748;8.960;2024-02-26T04:28:31;2.47;;;2.37;;
3149;SDS011;32503;47.748;8.960;2024-02-26T04:30:58;2.73;;;2.53;;
3149;SDS011;32503;47.748;8.960;2024-02-26T04:33:25;2.23;;;2.03;;
3149;SDS011;32503;47.748;8.960;2024-02-26T04:35:52;3.00;;;2.80;;
3149;SDS011;32503;47.748;8.960;2024-02-26T04:38:21;2.90;;;2.70;;
3149;SDS011;32503;47.748;8.960;2024-02-26T04:40:48;2.70;;;2.50;;
3149;SDS011;32503;47.748;8.960;2024-02-26T04:43:15;2.80;;;2.60;;
3149;SDS011;32503;47.748;8.960;2024-02-26T04:45:43;2.23;;;2.13;;
3149;SDS011;32503;47.748;8.960;2024-02-26T04:48:10;2.40;;;2.20;;
3149;SDS011;32503;47.748;8.960;2024-02-26T04:50:37;2.00;;;1.90;;
3149;SDS011;32503;47.748;8.960;2024-02-26T04:53:04;2.47;;;2.37;;
3149;SDS011;32503;47.748;8.960;2024-02-26T04:55:32;2.93;;;2.63;;
3149;SDS011;32503;47.748;8.960;2024-02-26T04:57:59;2.90;;;2.70;;
3149;SDS011;32503;47.748;8.960;2024-02-26T05:00:26;2.90;;;2.13;;
3149;SDS011;32503;47.748;8.960;2024-02-26T05:02:53;2.50;;;2.30;;
3149;SDS011;32503;47.748;8.960;2024-02-26T05:05:21;1.77;;;1.53;;
3149;SDS011;32503;47.748;8.960;2024-02-26T05:07:48;2.73;;;2.63;;
3149;SDS011;32503;47.748;8.960;2024-02-26T05:10:15;3.23;;;2.93;;
3149;SDS011;32503;47.748;8.960;2024-02-26T05:12:44;3.27;;;2.97;;
3149;SDS011;32503;47.748;8.960;2024-02-26T05:15:11;3.17;;;2.93;;
3149;SDS011;32503;47.748;8.960;2024-02-26T05:17:43;2.67;;;2.47;;
3149;SDS011;32503;47.748;8.960;2024-02-26T05:20:11;2.70;;;2.60;;
3149;SDS011;32503;47.748;8.960;2024-02-26T05:22:38;2.50;;;2.30;;
3149;SDS011;32503;47.748;8.960;2024-02-26T05:25:05;1.93;;;1.63;;
3149;SDS011;32503;47.748;8.960;2024-02-26T05:27:33;1.83;;;1.73;;
3149;SDS011;32503;47.748;8.960;2024-02-26T05:30:01;2.00;;;1.90;;
3149;SDS011;32503;47.748;8.960;2024-02-26T05:32:28;2.47;;;1.97;;
3149;SDS011;32503;47.748;8.960;2024-02-26T05:34:55;3.40;;;2.67;;
3149;SDS011;32503;47.748;8.960;2024-02-26T05:37:22;2.63;;;2.43;;
3149;SDS011;32503;47.748;8.960;2024-02-26T05:39:49;2.83;;;2.20;;
3149;SDS011;32503;47.748;8.960;2024-02-26T05:42:17;4.23;;;3.43;;
3149;SDS011;32503;47.748;8.960;2024-02-26T05:44:44;3.30;;;3.00;;
3149;SDS011;32503;47.748;8.960;2024-02-26T05:47:13;3.10;;;2.90;;
3149;SDS011;32503;47.748;8.960;2024-02-26T05:49:40;6.00;;;4.23;;
3149;SDS011;32503;47.748;8.960;2024-02-26T05:52:07;6.53;;;5.27;;
3149;SDS011;32503;47.748;8.960;2024-02-26T05:54:34;3.87;;;3.67;;
3149;SDS011;32503;47.748;8.960;2024-02-26T05:57:01;3.37;;;3.17;;
3149;SDS011;32503;47.748;8.960;2024-02-26T05:59:28;3.73;;;3.43;;
3149;SDS011;32503;47.748;8.960;2024-02-26T06:01:55;3.37;;;3.10;;
3149;SDS011;32503;47.748;8.960;2024-02-26T06:04:24;3.03;;;2.63;;
3149;SDS011;32503;47.748;8.960;2024-02-26T06:06:51;2.80;;;2.60;;
3149;SDS011;32503;47.748;8.960;2024-02-26T06:09:18;4.03;;;3.73;;
3149;SDS011;32503;47.748;8.960;2024-02-26T06:11:45;3.07;;;2.87;;
3149;SDS011;32503;47.748;8.960;2024-02-26T06:14:12;11.23;;;4.37;;
3149;SDS011;32503;47.748;8.960;2024-02-26T06:16:43;3.10;;;3.00;;
3149;SDS011;32503;47.748;8.960;2024-02-26T06:19:10;3.67;;;3.47;;
3149;SDS011;32503;47.748;8.960;2024-02-26T06:21:38;5.60;;;5.10;;
3149;SDS011;32503;47.748;8.960;2024-02-26T06:24:05;39.93;;;21.90;;
3149;SDS011;32503;47.748;8.960;2024-02-26T06:26:32;37.77;;;23.07;;
3149;SDS011;32503;47.748;8.960;2024-02-26T06:28:59;28.40;;;16.77;;
3149;SDS011;32503;47.748;8.960;2024-02-26T06:31:26;21.70;;;14.43;;
3149;SDS011;32503;47.748;8.960;2024-02-26T06:33:54;5.80;;;5.40;;
3149;SDS011;32503;47.748;8.960;2024-02-26T06:36:21;5.37;;;4.97;;
3149;SDS011;32503;47.748;8.960;2024-02-26T06:38:50;5.20;;;3.50;;
3149;SDS011;32503;47.748;8.960;2024-02-26T06:41:19;3.40;;;3.20;;
3149;SDS011;32503;47.748;8.960;2024-02-26T06:43:46;4.83;;;3.20;;
3149;SDS011;32503;47.748;8.960;2024-02-26T06:46:13;5.27;;;3.10;;
3149;SDS011;32503;47.748;8.960;2024-02-26T06:48:40;4.83;;;4.33;;
3149;SDS011;32503;47.748;8.960;2024-02-26T06:51:07;5.53;;;3.83;;
3149;SDS011;32503;47.748;8.960;2024-02-26T06:53:34;3.70;;;3.40;;
3149;SDS011;32503;47.748;8.960;2024-02-26T06:56:03;5.70;;;4.27;;
3149;SDS011;32503;47.748;8.960;2024-02-26T06:58:31;6.03;;;4.87;;
3149;SDS011;32503;47.748;8.960;2024-02-26T07:00:58;4.40;;;4.20;;
3149;SDS011;32503;47.748;8.960;2024-02-26T07:03:25;5.30;;;4.90;;
3149;SDS011;32503;47.748;8.960;2024-02-26T07:05:52;6.17;;;5.00;;
3149;SDS011;32503;47.748;8.960;2024-02-26T07:08:19;8.93;;;5.33;;
3149;SDS011;32503;47.748;8.960;2024-02-26T07:10:46;6.30;;;5.37;;
3149;SDS011;32503;47.748;8.960;2024-02-26T07:13:15;4.30;;;4.00;;
3149;SDS011;32503;47.748;8.960;2024-02-26T07:15:42;4.20;;;4.00;;
3149;SDS011;32503;47.748;8.960;2024-02-26T07:18:09;7.47;;;5.57;;
3149;SDS011;32503;47.748;8.960;2024-02-26T07:20:36;6.93;;;6.33;;
3149;SDS011;32503;47.748;8.960;2024-02-26T07:23:03;6.17;;;5.67;;
3149;SDS011;32503;47.748;8.960;2024-02-26T07:25:31;4.73;;;3.97;;
3149;SDS011;32503;47.748;8.960;2024-02-26T07:27:58;6.47;;;5.90;;
3149;SDS011;32503;47.748;8.960;2024-02-26T07:30:27;4.87;;;4.47;;
3149;SDS011;32503;47.748;8.960;2024-02-26T07:32:54;4.30;;;3.90;;
3149;SDS011;32503;47.748;8.960;2024-02-26T07:35:21;4.63;;;4.17;;
3149;SDS011;32503;47.748;8.960;2024-02-26T07:37:48;3.30;;;3.10;;
3149;SDS011;32503;47.748;8.960;2024-02-26T07:40:16;3.27;;;3.10;;
3149;SDS011;32503;47.748;8.960;2024-02-26T07:42:43;3.33;;;3.10;;
3149;SDS011;32503;47.748;8.960;2024-02-26T07:45:11;4.00;;;3.63;;
3149;SDS011;32503;47.748;8.960;2024-02-26T07:47:41;4.00;;;3.70;;
3149;SDS011;32503;47.748;8.960;2024-02-26T07:50:09;5.90;;;3.97;;
3149;SDS011;32503;47.748;8.960;2024-02-26T07:52:37;4.37;;;3.97;;
3149;SDS011;32503;47.748;8.960;2024-02-26T07:55:04;3.43;;;3.20;;
3149;SDS011;32503;47.748;8.960;2024-02-26T07:57:33;3.97;;;3.77;;
3149;SDS011;32503;47.748;8.960;2024-02-26T08:00:00;3.90;;;3.70;;
3149;SDS011;32503;47.748;8.960;2024-02-26T08:02:27;3.03;;;2.93;;
3149;SDS011;32503;47.748;8.960;2024-02-26T08:04:56;3.20;;;3.10;;
3149;SDS011;32503;47.748;8.960;2024-02-26T08:07:23;2.47;;;2.30;;
3149;SDS011;32503;47.748;8.960;2024-02-26T08:09:50;2.50;;;2.40;;
3149;SDS011;32503;47.748;8.960;2024-02-26T08:12:17;2.83;;;2.63;;
3149;SDS011;32503;47.748;8.960;2024-02-26T08:14:44;3.10;;;2.90;;
3149;SDS011;32503;47.748;8.960;2024-02-26T08:17:11;2.40;;;2.30;;
3149;SDS011;32503;47.748;8.960;2024-02-26T08:19:38;2.67;;;2.47;;
3149;SDS011;32503;47.748;8.960;2024-02-26T08:22:06;3.20;;;2.90;;
3149;SDS011;32503;47.748;8.960;2024-02-26T08:24:35;3.70;;;2.93;;
3149;SDS011;32503;47.748;8.960;2024-02-26T08:27:02;3.43;;;3.13;;
3149;SDS011;32503;47.748;8.960;2024-02-26T08:29:29;3.10;;;3.00;;
3149;SDS011;32503;47.748;8.960;2024-02-26T08:31:57;3.27;;;3.03;;
3149;SDS011;32503;47.748;8.960;2024-02-26T08:34:24;3.60;;;3.37;;
3149;SDS011;32503;47.748;8.960;2024-02-26T08:36:51;3.50;;;3.20;;
3149;SDS011;32503;47.748;8.960;2024-02-26T08:39:20;3.07;;;2.87;;
3149;SDS011;32503;47.748;8.960;2024-02-26T08:41:47;8.03;;;3.20;;
3149;SDS011;32503;47.748;8.960;2024-02-26T08:44:14;3.30;;;3.10;;
3149;SDS011;32503;47.748;8.960;2024-02-26T08:46:41;5.00;;;3.17;;
3149;SDS011;32503;47.748;8.960;2024-02-26T08:49:08;4.03;;;3.63;;
3149;SDS011;32503;47.748;8.960;2024-02-26T08:51:35;3.33;;;3.13;;
3149;SDS011;32503;47.748;8.960;2024-02-26T08:54:07;3.83;;;3.57;;
3149;SDS011;32503;47.748;8.960;2024-02-26T08:56:35;2.80;;;2.60;;
3149;SDS011;32503;47.748;8.960;2024-02-26T08:59:02;2.83;;;2.63;;
3149;SDS011;32503;47.748;8.960;2024-02-26T09:01:30;3.60;;;3.30;;
3149;SDS011;32503;47.748;8.960;2024-02-26T09:03:57;3.80;;;3.37;;
3149;SDS011;32503;47.748;8.960;2024-02-26T09:06:24;6.30;;;5.70;;
3149;SDS011;32503;47.748;8.960;2024-02-26T09:08:52;3.17;;;2.77;;
3149;SDS011;32503;47.748;8.960;2024-02-26T09:11:19;3.13;;;2.83;;
3149;SDS011;32503;47.748;8.960;2024-02-26T09:13:47;4.20;;;4.00;;
3149;SDS011;32503;47.748;8.960;2024-02-26T09:16:14;3.90;;;3.60;;
3149;SDS011;32503;47.748;8.960;2024-02-26T09:18:41;4.17;;;3.77;;
3149;SDS011;32503;47.748;8.960;2024-02-26T09:21:08;2.90;;;2.80;;
3149;SDS011;32503;47.748;8.960;2024-02-26T09:23:35;2.73;;;2.53;;
3149;SDS011;32503;47.748;8.960;2024-02-26T09:26:04;2.90;;;2.70;;
3149;SDS011;32503;47.748;8.960;2024-02-26T09:28:32;4.90;;;3.00;;
3149;SDS011;32503;47.748;8.960;2024-02-26T09:31:03;2.47;;;2.30;;
3149;SDS011;32503;47.748;8.960;2024-02-26T09:33:31;2.63;;;2.53;;
3149;SDS011;32503;47.748;8.960;2024-02-26T09:35:58;2.33;;;2.23;;
3149;SDS011;32503;47.748;8.960;2024-02-26T09:38:26;2.60;;;2.50;;
3149;SDS011;32503;47.748;8.960;2024-02-26T09:40:54;2.27;;;2.17;;
3149;SDS011;32503;47.748;8.960;2024-02-26T09:43:22;2.83;;;2.57;;
3149;SDS011;32503;47.748;8.960;2024-02-26T09:45:49;2.17;;;2.00;;
3149;SDS011;32503;47.748;8.960;2024-02-26T09:48:19;1.87;;;1.77;;
3149;SDS011;32503;47.748;8.960;2024-02-26T09:50:48;2.67;;;2.57;;
3149;SDS011;32503;47.748;8.960;2024-02-26T09:53:16;2.30;;;2.20;;
3149;SDS011;32503;47.748;8.960;2024-02-26T09:55:44;2.13;;;2.00;;
3149;SDS011;32503;47.748;8.960;2024-02-26T09:58:11;2.20;;;2.10;;
3149;SDS011;32503;47.748;8.960;2024-02-26T10:00:43;2.43;;;2.33;;
3149;SDS011;32503;47.748;8.960;2024-02-26T10:03:18;2.03;;;1.93;;
3149;SDS011;32503;47.748;8.960;2024-02-26T10:05:48;2.23;;;2.07;;
3149;SDS011;32503;47.748;8.960;2024-02-26T10:08:18;2.53;;;2.43;;
3149;SDS011;32503;47.748;8.960;2024-02-26T10:10:47;2.70;;;2.50;;
3149;SDS011;32503;47.748;8.960;2024-02-26T10:13:15;2.53;;;2.33;;
3149;SDS011;32503;47.748;8.960;2024-02-26T10:15:42;2.23;;;2.13;;
3149;SDS011;32503;47.748;8.960;2024-02-26T10:18:09;1.70;;;1.60;;
3149;SDS011;32503;47.748;8.960;2024-02-26T10:20:37;2.20;;;2.10;;
3149;SDS011;32503;47.748;8.960;2024-02-26T10:23:04;3.13;;;2.40;;
3149;SDS011;32503;47.748;8.960;2024-02-26T10:25:32;4.63;;;2.40;;
3149;SDS011;32503;47.748;8.960;2024-02-26T10:28:00;2.67;;;2.57;;
3149;SDS011;32503;47.748;8.960;2024-02-26T10:30:28;2.10;;;2.00;;
3149;SDS011;32503;47.748;8.960;2024-02-26T10:32:55;2.10;;;2.00;;
3149;SDS011;32503;47.748;8.960;2024-02-26T10:35:23;2.77;;;2.57;;
3149;SDS011;32503;47.748;8.960;2024-02-26T10:37:52;2.50;;;2.30;;
3149;SDS011;32503;47.748;8.960;2024-02-26T10:40:20;2.60;;;2.40;;
3149;SDS011;32503;47.748;8.960;2024-02-26T10:42:47;3.90;;;2.67;;
3149;SDS011;32503;47.748;8.960;2024-02-26T10:45:14;2.40;;;2.20;;
3149;SDS011;32503;47.748;8.960;2024-02-26T10:47:41;4.50;;;4.10;;
3149;SDS011;32503;47.748;8.960;2024-02-26T10:50:09;3.30;;;2.97;;
3149;SDS011;32503;47.748;8.960;2024-02-26T10:52:38;3.10;;;2.90;;
3149;SDS011;32503;47.748;8.960;2024-02-26T10:55:12;2.37;;;2.23;;
3149;SDS011;32503;47.748;8.960;2024-02-26T10:57:44;2.50;;;2.40;;
3149;SDS011;32503;47.748;8.960;2024-02-26T11:00:13;2.80;;;2.57;;
3149;SDS011;32503;47.748;8.960;2024-02-26T11:02:41;2.80;;;2.70;;
3149;SDS011;32503;47.748;8.960;2024-02-26T11:05:11;3.53;;;3.23;;
3149;SDS011;32503;47.748;8.960;2024-02-26T11:07:40;3.47;;;3.27;;
3149;SDS011;32503;47.748;8.960;2024-02-26T11:10:10;4.87;;;4.57;;
3149;SDS011;32503;47.748;8.960;2024-02-26T11:12:39;5.40;;;4.83;;
3149;SDS011;32503;47.748;8.960;2024-02-26T11:15:08;4.40;;;4.10;;
3149;SDS011;32503;47.748;8.960;2024-02-26T11:17:36;3.10;;;2.90;;
3149;SDS011;32503;47.748;8.960;2024-02-26T11:20:05;4.00;;;3.70;;
3149;SDS011;32503;47.748;8.960;2024-02-26T11:22:37;5.00;;;4.70;;
3149;SDS011;32503;47.748;8.960;2024-02-26T11:25:04;4.70;;;4.30;;
3149;SDS011;32503;47.748;8.960;2024-02-26T11:27:37;4.80;;;4.47;;
3149;SDS011;32503;47.748;8.960;2024-02-26T11:30:09;4.93;;;4.60;;
3149;SDS011;32503;47.748;8.960;2024-02-26T11:32:39;5.07;;;3.70;;
3149;SDS011;32503;47.748;8.960;2024-02-26T11:35:06;4.10;;;3.90;;
3149;SDS011;32503;47.748;8.960;2024-02-26T11:37:35;3.50;;;3.30;;
3149;SDS011;32503;47.748;8.960;2024-02-26T11:40:03;3.47;;;3.17;;
3149;SDS011;32503;47.748;8.960;2024-02-26T11:42:37;3.17;;;3.07;;
3149;SDS011;32503;47.748;8.960;2024-02-26T11:48:15;3.10;;;2.80;;
3149;SDS011;32503;47.748;8.960;2024-02-26T11:50:46;3.60;;;3.20;;
3149;SDS011;32503;47.748;8.960;2024-02-26T11:53:22;2.30;;;2.20;;
3149;SDS011;32503;47.748;8.960;2024-02-26T11:58:59;2.70;;;2.60;;
3149;SDS011;32503;47.748;8.960;2024-02-26T12:01:37;3.20;;;3.00;;
3149;SDS011;32503;47.748;8.960;2024-02-26T12:04:05;3.93;;;3.50;;
3149;SDS011;32503;47.748;8.960;2024-02-26T12:06:47;2.30;;;2.20;;
3149;SDS011;32503;47.748;8.960;2024-02-26T12:09:30;2.77;;;2.57;;
3149;SDS011;32503;47.748;8.960;2024-02-26T12:11:59;3.53;;;3.23;;
3149;SDS011;32503;47.748;8.960;2024-02-26T12:14:29;2.77;;;2.57;;
3149;SDS011;32503;47.748;8.960;2024-02-26T12:17:04;2.60;;;2.40;;
3149;SDS011;32503;47.748;8.960;2024-02-26T12:19:34;3.23;;;3.03;;
3149;SDS011;32503;47.748;8.960;2024-02-26T12:22:02;3.20;;;3.00;;
3149;SDS011;32503;47.748;8.960;2024-02-26T12:24:30;7.90;;;4.33;;
3149;SDS011;32503;47.748;8.960;2024-02-26T12:26:57;3.70;;;3.50;;
3149;SDS011;32503;47.748;8.960;2024-02-26T12:29:24;4.23;;;3.83;;
3149;SDS011;32503;47.748;8.960;2024-02-26T12:31:52;4.13;;;3.83;;
3149;SDS011;32503;47.748;8.960;2024-02-26T12:34:19;3.50;;;3.30;;
3149;SDS011;32503;47.748;8.960;2024-02-26T12:36:47;2.73;;;2.50;;
3149;SDS011;32503;47.748;8.960;2024-02-26T12:39:14;3.63;;;3.53;;
3149;SDS011;32503;47.748;8.960;2024-02-26T12:41:41;3.43;;;3.23;;
3149;SDS011;32503;47.748;8.960;2024-02-26T12:44:14;3.37;;;3.20;;
3149;SDS011;32503;47.748;8.960;2024-02-26T12:46:41;3.43;;;3.13;;
3149;SDS011;32503;47.748;8.960;2024-02-26T12:49:09;3.70;;;3.50;;
3149;SDS011;32503;47.748;8.960;2024-02-26T12:51:43;4.53;;;3.83;;
3149;SDS011;32503;47.748;8.960;2024-02-26T12:54:10;4.67;;;3.30;;
3149;SDS011;32503;47.748;8.960;2024-02-26T12:56:38;2.90;;;2.70;;
3149;SDS011;32503;47.748;8.960;2024-02-26T12:59:06;3.83;;;3.30;;
3149;SDS011;32503;47.748;8.960;2024-02-26T13:01:34;3.20;;;3.00;;
3149;SDS011;32503;47.748;8.960;2024-02-26T13:04:02;4.67;;;3.47;;
3149;SDS011;32503;47.748;8.960;2024-02-26T13:06:33;6.63;;;4.13;;
3149;SDS011;32503;47.748;8.960;2024-02-26T13:09:00;3.37;;;3.17;;
3149;SDS011;32503;47.748;8.960;2024-02-26T13:11:28;2.97;;;2.60;;
3149;SDS011;32503;47.748;8.960;2024-02-26T13:13:56;2.90;;;2.70;;
3149;SDS011;32503;47.748;8.960;2024-02-26T13:16:24;3.93;;;3.63;;
3149;SDS011;32503;47.748;8.960;2024-02-26T13:18:51;3.50;;;3.30;;
3149;SDS011;32503;47.748;8.960;2024-02-26T13:21:18;2.87;;;2.67;;
3149;SDS011;32503;47.748;8.960;2024-02-26T13:23:51;2.93;;;2.73;;
3149;SDS011;32503;47.748;8.960;2024-02-26T13:26:21;3.53;;;3.33;;
3149;SDS011;32503;47.748;8.960;2024-02-26T13:28:58;3.17;;;2.93;;
3149;SDS011;32503;47.748;8.960;2024-02-26T13:31:28;3.27;;;3.07;;
3149;SDS011;32503;47.748;8.960;2024-02-26T13:33:55;3.03;;;2.83;;
3149;SDS011;32503;47.748;8.960;2024-02-26T13:36:23;2.47;;;2.37;;
3149;SDS011;32503;47.748;8.960;2024-02-26T13:38:52;3.10;;;2.90;;
3149;SDS011;32503;47.748;8.960;2024-02-26T13:41:20;3.67;;;3.37;;
3149;SDS011;32503;47.748;8.960;2024-02-26T13:43:47;3.33;;;3.13;;
3149;SDS011;32503;47.748;8.960;2024-02-26T13:46:14;3.80;;;3.50;;
3149;SDS011;32503;47.748;8.960;2024-02-26T13:48:42;2.87;;;2.67;;
3149;SDS011;32503;47.748;8.960;2024-02-26T13:51:09;3.50;;;3.30;;
3149;SDS011;32503;47.748;8.960;2024-02-26T13:53:36;2.73;;;2.57;;
3149;SDS011;32503;47.748;8.960;2024-02-26T13:56:04;3.30;;;3.10;;
3149;SDS011;32503;47.748;8.960;2024-02-26T13:58:32;3.00;;;2.80;;
3149;SDS011;32503;47.748;8.960;2024-02-26T14:00:59;3.40;;;3.20;;
3149;SDS011;32503;47.748;8.960;2024-02-26T14:03:28;2.67;;;2.47;;
3149;SDS011;32503;47.748;8.960;2024-02-26T14:05:55;2.40;;;2.30;;
3149;SDS011;32503;47.748;8.960;2024-02-26T14:08:23;2.57;;;2.47;;
3149;SDS011;32503;47.748;8.960;2024-02-26T14:10:50;3.63;;;3.13;;
3149;SDS011;32503;47.748;8.960;2024-02-26T14:13:19;5.40;;;3.50;;
3149;SDS011;32503;47.748;8.960;2024-02-26T14:15:46;3.50;;;3.20;;
3149;SDS011;32503;47.748;8.960;2024-02-26T14:18:13;2.20;;;2.10;;
3149;SDS011;32503;47.748;8.960;2024-02-26T14:20:40;3.17;;;2.97;;
3149;SDS011;32503;47.748;8.960;2024-02-26T14:23:07;2.87;;;1.90;;
3149;SDS011;32503;47.748;8.960;2024-02-26T14:25:34;2.73;;;2.60;;
3149;SDS011;32503;47.748;8.960;2024-02-26T14:28:01;2.53;;;2.40;;
3149;SDS011;32503;47.748;8.960;2024-02-26T14:30:30;2.13;;;2.03;;
3149;SDS011;32503;47.748;8.960;2024-02-26T14:32:57;2.90;;;2.70;;
3149;SDS011;32503;47.748;8.960;2024-02-26T14:35:24;4.50;;;3.30;;
3149;SDS011;32503;47.748;8.960;2024-02-26T14:37:52;3.30;;;3.00;;
3149;SDS011;32503;47.748;8.960;2024-02-26T14:40:20;4.27;;;2.80;;
3149;SDS011;32503;47.748;8.960;2024-02-26T14:42:47;2.37;;;2.27;;
3149;SDS011;32503;47.748;8.960;2024-02-26T14:45:14;3.53;;;3.27;;
3149;SDS011;32503;47.748;8.960;2024-02-26T14:47:43;3.03;;;2.90;;
3149;SDS011;32503;47.748;8.960;2024-02-26T14:50:10;3.27;;;3.07;;
3149;SDS011;32503;47.748;8.960;2024-02-26T14:52:37;3.27;;;2.97;;
3149;SDS011;32503;47.748;8.960;2024-02-26T14:55:04;2.77;;;2.53;;
3149;SDS011;32503;47.748;8.960;2024-02-26T14:57:32;3.17;;;2.97;;
3149;SDS011;32503;47.748;8.960;2024-02-26T14:59:59;4.20;;;3.90;;
3149;SDS011;32503;47.748;8.960;2024-02-26T15:02:30;3.83;;;3.63;;
3149;SDS011;32503;47.748;8.960;2024-02-26T15:04:59;4.07;;;3.77;;
3149;SDS011;32503;47.748;8.960;2024-02-26T15:07:26;3.83;;;3.43;;
3149;SDS011;32503;47.748;8.960;2024-02-26T15:09:53;4.03;;;3.83;;